createdAt,value
2022-12-19T00:01:16.290Z,24.73
2022-12-19T00:03:46.731Z,24.13
2022-12-19T00:06:13.695Z,26.98
2022-12-19T00:08:44.379Z,29.15
2022-12-19T00:11:11.493Z,27.45
2022-12-19T00:13:41.117Z,32.08
2022-12-19T00:16:10.521Z,30.00
2022-12-19T00:18:38.841Z,32.92
2022-12-19T00:21:05.305Z,34.72
2022-12-19T00:23:33.005Z,35.40
2022-12-19T00:26:18.112Z,33.25
2022-12-19T00:28:47.428Z,32.22
2022-12-19T00:31:14.580Z,38.35
2022-12-19T00:33:43.395Z,35.63
2022-12-19T00:36:13.322Z,32.00
2022-12-19T00:38:44.889Z,36.35
2022-12-19T00:41:16.307Z,34.85
2022-12-19T00:43:43.982Z,30.23
2022-12-19T00:46:11.590Z,35.90
2022-12-19T00:48:38.025Z,32.20
2022-12-19T00:51:06.727Z,35.78
2022-12-19T00:53:34.479Z,33.22
2022-12-19T00:56:01.914Z,30.38
2022-12-19T00:58:28.678Z,31.55
2022-12-19T01:00:55.107Z,34.85
2022-12-19T01:03:21.630Z,26.23
2022-12-19T01:05:48.013Z,34.85
2022-12-19T01:08:18.114Z,32.03
2022-12-19T01:10:46.682Z,26.23
2022-12-19T01:13:13.896Z,34.00
2022-12-19T01:15:43.805Z,31.65
2022-12-19T01:18:10.460Z,23.60
2022-12-19T01:20:40.640Z,29.25
2022-12-19T01:23:07.994Z,32.95
2022-12-19T01:25:35.119Z,30.35
2022-12-19T01:28:04.184Z,30.27
2022-12-19T01:30:31.945Z,29.52
2022-12-19T01:32:58.804Z,32.38
2022-12-19T01:35:27.319Z,26.80
2022-12-19T01:38:05.507Z,27.83
2022-12-19T01:40:35.209Z,32.42
2022-12-19T01:43:02.033Z,24.73
2022-12-19T01:45:34.536Z,34.55
2022-12-19T01:48:11.432Z,33.70
2022-12-19T01:50:41.439Z,33.53
2022-12-19T01:53:27.200Z,37.17
2022-12-19T01:55:54.195Z,30.13
2022-12-19T01:58:20.616Z,33.95
2022-12-19T02:00:47.103Z,36.00
2022-12-19T02:03:23.517Z,37.63
2022-12-19T02:05:50.834Z,29.60
2022-12-19T02:08:18.481Z,36.80
2022-12-19T02:10:45.263Z,31.90
2022-12-19T02:13:14.604Z,40.35
2022-12-19T02:15:46.891Z,37.75
2022-12-19T02:18:16.434Z,36.75
2022-12-19T02:21:01.563Z,37.00
2022-12-19T02:23:46.922Z,39.22
2022-12-19T02:26:29.837Z,39.42
2022-12-19T02:29:01.665Z,30.77
2022-12-19T02:31:30.771Z,39.00
2022-12-19T02:34:01.478Z,37.13
2022-12-19T02:36:32.882Z,38.45
2022-12-19T02:39:11.569Z,35.67
2022-12-19T02:41:43.291Z,29.52
2022-12-19T02:44:19.156Z,37.00
2022-12-19T02:46:46.189Z,35.75
2022-12-19T02:49:14.054Z,37.70
2022-12-19T02:51:47.114Z,35.63
2022-12-19T02:54:13.510Z,32.75
2022-12-19T02:56:48.855Z,30.20
2022-12-19T02:59:33.854Z,37.95
2022-12-19T03:02:16.134Z,35.05
2022-12-19T03:04:55.633Z,33.33
2022-12-19T03:07:33.628Z,29.30
2022-12-19T03:10:15.419Z,30.45
2022-12-19T03:12:47.667Z,32.20
2022-12-19T03:15:15.011Z,26.83
2022-12-19T03:17:41.683Z,27.08
2022-12-19T03:20:09.316Z,31.20
2022-12-19T03:22:35.711Z,26.20
2022-12-19T03:25:02.183Z,28.23
2022-12-19T03:27:32.670Z,35.47
2022-12-19T03:30:04.933Z,37.38
2022-12-19T03:32:32.497Z,24.80
2022-12-19T03:35:01.485Z,29.33
2022-12-19T03:37:30.792Z,29.98
2022-12-19T03:40:03.072Z,36.20
2022-12-19T03:42:49.474Z,29.55
2022-12-19T03:45:21.364Z,24.02
2022-12-19T03:47:50.482Z,34.90
2022-12-19T03:50:17.831Z,32.03
2022-12-19T03:52:50.770Z,31.33
2022-12-19T03:55:19.329Z,30.45
2022-12-19T03:58:05.964Z,32.78
2022-12-19T04:00:34.722Z,31.55
2022-12-19T04:03:01.748Z,30.50
2022-12-19T04:05:29.008Z,23.73
2022-12-19T04:07:58.304Z,26.48
2022-12-19T04:10:26.083Z,22.42
2022-12-19T04:12:54.300Z,30.73
2022-12-19T04:15:23.677Z,26.85
2022-12-19T04:17:57.769Z,32.10
2022-12-19T04:20:28.141Z,23.83
2022-12-19T04:22:58.164Z,27.10
2022-12-19T04:25:29.503Z,26.23
2022-12-19T04:27:58.723Z,22.30
2022-12-19T04:30:25.771Z,26.52
2022-12-19T04:32:52.321Z,25.58
2022-12-19T04:35:18.698Z,27.65
2022-12-19T04:37:45.092Z,27.73
2022-12-19T04:40:11.815Z,23.77
2022-12-19T04:42:38.216Z,21.15
2022-12-19T04:45:05.081Z,29.05
2022-12-19T04:47:31.872Z,28.27
2022-12-19T04:49:58.168Z,18.90
2022-12-19T04:52:24.666Z,33.25
2022-12-19T04:54:50.992Z,30.15
2022-12-19T04:57:17.339Z,28.20
2022-12-19T04:59:43.639Z,25.00
2022-12-19T05:02:10.076Z,20.55
2022-12-19T05:04:36.501Z,25.08
2022-12-19T05:07:02.794Z,22.70
2022-12-19T05:09:29.169Z,27.95
2022-12-19T05:11:55.477Z,27.27
2022-12-19T05:14:21.824Z,24.42
2022-12-19T05:16:48.223Z,26.77
2022-12-19T05:19:15.975Z,29.55
2022-12-19T05:21:42.379Z,28.13
2022-12-19T05:24:08.805Z,27.55
2022-12-19T05:26:35.111Z,28.63
2022-12-19T05:29:01.478Z,19.05
2022-12-19T05:31:27.876Z,28.83
2022-12-19T05:33:54.512Z,22.00
2022-12-19T05:36:21.022Z,23.80
2022-12-19T05:38:47.378Z,26.70
2022-12-19T05:41:17.718Z,25.33
2022-12-19T05:43:45.142Z,21.33
2022-12-19T05:46:11.957Z,25.50
2022-12-19T05:48:39.033Z,23.83
2022-12-19T05:51:05.559Z,26.25
2022-12-19T05:53:32.156Z,21.65
2022-12-19T05:56:12.219Z,27.90
2022-12-19T05:58:39.020Z,26.27
2022-12-19T06:01:10.096Z,27.80
2022-12-19T06:03:36.779Z,26.38
2022-12-19T06:06:04.090Z,23.30
2022-12-19T06:08:30.866Z,25.63
2022-12-19T06:11:00.429Z,23.70
2022-12-19T06:13:29.707Z,26.85
2022-12-19T06:16:03.641Z,25.88
2022-12-19T06:18:30.534Z,24.95
2022-12-19T06:20:57.798Z,19.70
2022-12-19T06:23:24.466Z,22.83
2022-12-19T06:25:50.854Z,27.10
2022-12-19T06:28:17.170Z,25.80
2022-12-19T06:30:43.502Z,22.73
2022-12-19T06:33:09.953Z,23.55
2022-12-19T06:35:37.056Z,24.13
2022-12-19T06:38:03.345Z,20.60
2022-12-19T06:40:48.099Z,20.08
2022-12-19T06:43:14.446Z,24.75
2022-12-19T06:45:40.874Z,23.92
2022-12-19T06:48:07.270Z,22.80
2022-12-19T06:50:35.757Z,23.25
2022-12-19T06:53:07.891Z,25.02
2022-12-19T06:55:35.785Z,20.73
2022-12-19T06:58:02.135Z,20.17
2022-12-19T07:00:28.496Z,22.45
2022-12-19T07:02:55.496Z,19.80
2022-12-19T07:05:22.113Z,22.63
2022-12-19T07:07:48.488Z,20.25
2022-12-19T07:10:15.562Z,18.17
2022-12-19T07:12:41.963Z,23.13
2022-12-19T07:15:08.903Z,23.30
2022-12-19T07:17:38.022Z,21.52
2022-12-19T07:20:04.602Z,23.60
2022-12-19T07:22:31.934Z,22.10
2022-12-19T07:24:58.890Z,23.92
2022-12-19T07:27:28.554Z,21.95
2022-12-19T07:30:00.243Z,23.33
2022-12-19T07:32:26.530Z,20.95
2022-12-19T07:34:55.582Z,20.73
2022-12-19T07:37:21.881Z,22.58
2022-12-19T07:39:48.843Z,18.27
2022-12-19T07:42:15.230Z,23.33
2022-12-19T07:44:41.582Z,19.00
2022-12-19T07:47:10.613Z,19.20
2022-12-19T07:49:37.046Z,21.85
2022-12-19T07:52:03.353Z,19.63
2022-12-19T07:54:29.855Z,20.65
2022-12-19T07:56:56.393Z,19.50
2022-12-19T07:59:28.914Z,18.52
2022-12-19T08:01:56.963Z,20.15
2022-12-19T08:04:23.635Z,21.20
2022-12-19T08:06:50.042Z,17.90
2022-12-19T08:09:16.360Z,18.48
2022-12-19T08:11:42.679Z,18.02
2022-12-19T08:14:09.030Z,18.40
2022-12-19T08:16:55.746Z,19.63
2022-12-19T08:19:27.275Z,17.38
2022-12-19T08:21:54.101Z,17.35
2022-12-19T08:24:20.489Z,18.05
2022-12-19T08:26:47.823Z,16.98
2022-12-19T08:29:14.348Z,17.17
2022-12-19T08:31:40.765Z,18.10
2022-12-19T08:34:07.161Z,18.40
2022-12-19T08:36:33.894Z,16.50
2022-12-19T08:39:00.210Z,15.70
2022-12-19T08:41:26.647Z,18.17
2022-12-19T08:43:53.829Z,18.40
2022-12-19T08:46:20.468Z,16.30
2022-12-19T08:48:46.982Z,15.35
2022-12-19T08:51:13.863Z,17.40
2022-12-19T08:53:41.211Z,13.95
2022-12-19T08:56:13.408Z,15.63
2022-12-19T08:58:40.149Z,17.27
2022-12-19T09:01:09.024Z,16.08
2022-12-19T09:03:48.316Z,18.15
2022-12-19T09:06:22.226Z,16.15
2022-12-19T09:08:49.859Z,15.30
2022-12-19T09:11:17.365Z,15.45
2022-12-19T09:13:44.059Z,13.68
2022-12-19T09:16:10.469Z,14.75
2022-12-19T09:18:36.808Z,14.43
2022-12-19T09:21:03.523Z,13.70
2022-12-19T09:23:34.501Z,14.07
2022-12-19T09:26:05.709Z,12.00
2022-12-19T09:28:32.092Z,12.68
2022-12-19T09:30:59.632Z,13.77
2022-12-19T09:33:26.603Z,13.15
2022-12-19T09:35:54.476Z,12.27
2022-12-19T09:38:25.282Z,13.50
2022-12-19T09:40:57.664Z,9.88
2022-12-19T09:43:42.802Z,14.25
2022-12-19T09:46:15.317Z,12.40
2022-12-19T09:48:41.908Z,10.88
2022-12-19T09:51:16.804Z,12.82
2022-12-19T09:53:56.850Z,11.30
2022-12-19T09:56:26.688Z,11.95
2022-12-19T09:58:55.918Z,11.75
2022-12-19T10:01:25.629Z,12.13
2022-12-19T10:04:00.699Z,12.05
2022-12-19T10:07:11.271Z,10.38
2022-12-19T10:10:45.412Z,11.57
2022-12-19T10:12:44.384Z,12.38
2022-12-19T10:14:56.550Z,12.20
2022-12-19T10:17:34.869Z,12.48
2022-12-19T10:20:20.460Z,11.38
2022-12-19T10:22:52.836Z,11.20
2022-12-19T10:25:25.022Z,12.02
2022-12-19T10:28:00.458Z,12.48
2022-12-19T10:30:31.388Z,10.27
2022-12-19T10:33:19.371Z,11.60
2022-12-19T10:35:52.719Z,10.02
2022-12-19T10:38:26.700Z,10.60
2022-12-19T10:40:55.334Z,9.35
2022-12-19T10:43:53.919Z,9.45
2022-12-19T10:46:39.691Z,8.65
2022-12-19T10:49:19.075Z,8.27
2022-12-19T10:52:02.834Z,8.73
2022-12-19T10:54:41.718Z,8.05
2022-12-19T10:57:23.396Z,9.73
2022-12-19T11:00:04.728Z,9.90
2022-12-19T11:02:34.042Z,9.13
2022-12-19T11:05:01.165Z,8.85
2022-12-19T11:07:27.622Z,8.27
2022-12-19T11:10:41.276Z,8.10
2022-12-19T11:17:01.088Z,8.05
2022-12-19T11:19:56.601Z,8.50
2022-12-19T11:29:17.226Z,7.65
2022-12-19T11:29:35.141Z,8.05
2022-12-19T11:29:44.965Z,7.70
2022-12-19T11:30:36.056Z,7.57
2022-12-19T11:33:08.352Z,7.65
2022-12-19T11:35:44.760Z,8.68
2022-12-19T11:38:13.508Z,8.45
2022-12-19T11:40:48.683Z,7.40
2022-12-19T11:43:45.401Z,9.05
2022-12-19T11:46:25.207Z,7.10
2022-12-19T11:49:10.265Z,7.40
2022-12-19T11:51:43.281Z,7.57
2022-12-19T11:54:33.077Z,7.95
2022-12-19T11:56:59.608Z,7.25
2022-12-19T11:59:34.408Z,8.18
2022-12-19T12:02:00.838Z,8.48
2022-12-19T12:04:38.113Z,7.70
2022-12-19T12:07:20.470Z,7.72
2022-12-19T12:15:04.363Z,7.65
2022-12-19T12:16:57.710Z,7.03
2022-12-19T12:29:43.034Z,6.97
2022-12-19T12:31:09.513Z,6.90
2022-12-19T12:31:10.966Z,6.78
2022-12-19T12:31:58.473Z,7.13
2022-12-19T12:32:02.755Z,7.22
2022-12-19T12:32:06.525Z,6.70
2022-12-19T12:35:35.105Z,6.22
2022-12-19T12:38:26.410Z,6.65
2022-12-19T12:40:53.716Z,5.97
2022-12-19T12:43:25.993Z,6.38
2022-12-19T12:45:52.331Z,6.15
2022-12-19T12:48:22.502Z,5.65
2022-12-19T12:50:55.032Z,5.72
2022-12-19T12:53:25.149Z,6.15
2022-12-19T12:55:52.144Z,6.25
2022-12-19T12:58:37.042Z,5.78
2022-12-19T13:01:11.192Z,5.53
2022-12-19T13:03:40.229Z,5.32
2022-12-19T13:06:18.214Z,5.07
2022-12-19T13:08:48.612Z,5.07
2022-12-19T13:11:37.662Z,4.82
2022-12-19T13:14:05.250Z,5.13
2022-12-19T13:16:43.630Z,4.50
2022-12-19T13:19:27.945Z,5.53
2022-12-19T13:22:04.072Z,4.97
2022-12-19T13:24:45.517Z,4.95
2022-12-19T13:27:20.759Z,4.78
2022-12-19T13:30:10.408Z,4.63
2022-12-19T13:32:39.833Z,4.53
2022-12-19T13:35:31.163Z,4.80
2022-12-19T13:40:00.881Z,4.80
2022-12-19T13:40:58.243Z,4.65
2022-12-19T13:43:45.677Z,4.45
2022-12-19T13:46:37.991Z,4.55
2022-12-19T13:49:17.586Z,4.20
2022-12-19T13:51:48.759Z,5.50
2022-12-19T13:54:22.893Z,5.00
2022-12-19T13:56:50.223Z,4.65
2022-12-19T13:59:16.868Z,4.53
2022-12-19T14:01:43.382Z,4.13
2022-12-19T14:04:16.285Z,4.97
2022-12-19T14:06:47.103Z,4.93
2022-12-19T14:11:27.322Z,4.70
2022-12-19T14:13:57.267Z,4.80
2022-12-19T14:15:35.696Z,4.30
2022-12-19T14:18:43.011Z,4.60
2022-12-19T14:22:08.640Z,4.63
2022-12-19T14:24:18.772Z,4.95
2022-12-19T14:28:18.228Z,4.28
2022-12-19T14:30:26.577Z,4.53
2022-12-19T14:33:46.562Z,4.30
2022-12-19T14:36:06.540Z,4.85
2022-12-19T14:39:25.775Z,4.13
2022-12-19T14:41:08.360Z,4.43
2022-12-19T14:43:59.638Z,4.80
2022-12-19T14:53:10.869Z,4.57
2022-12-19T14:54:14.085Z,4.00
2022-12-19T14:54:20.957Z,4.80
2022-12-19T14:56:04.140Z,4.45
2022-12-19T14:58:54.154Z,4.50
2022-12-19T15:01:09.020Z,3.92
2022-12-19T15:03:42.032Z,4.03
2022-12-19T15:07:05.365Z,4.17
2022-12-19T15:11:02.451Z,4.00
2022-12-19T15:14:20.279Z,4.38
2022-12-19T15:15:18.275Z,4.07
2022-12-19T15:17:45.759Z,4.45
2022-12-19T15:20:12.108Z,3.95
2022-12-19T15:22:38.555Z,3.47
2022-12-19T15:25:05.139Z,3.92
2022-12-19T15:27:31.877Z,3.80
2022-12-19T15:29:58.480Z,3.47
2022-12-19T15:32:24.909Z,3.42
2022-12-19T15:34:51.912Z,3.67
2022-12-19T15:37:18.509Z,3.75
2022-12-19T15:39:44.961Z,3.88
2022-12-19T15:42:17.311Z,4.55
2022-12-19T15:44:44.459Z,3.20
2022-12-19T15:47:18.563Z,3.38
2022-12-19T15:49:45.402Z,3.80
2022-12-19T15:52:15.260Z,4.60
2022-12-19T15:54:50.658Z,3.95
2022-12-19T15:57:19.967Z,3.72
2022-12-19T15:59:46.519Z,3.95
2022-12-19T16:02:15.906Z,3.65
2022-12-19T16:04:42.783Z,8.77
2022-12-19T16:07:14.735Z,6.15
2022-12-19T16:09:41.048Z,5.03
2022-12-19T16:12:10.515Z,4.50
2022-12-19T16:14:37.181Z,4.90
2022-12-19T16:17:03.623Z,4.30
2022-12-19T16:19:30.637Z,5.10
2022-12-19T16:21:57.985Z,5.55
2022-12-19T16:24:24.540Z,5.28
2022-12-19T16:26:53.053Z,4.95
2022-12-19T16:29:20.851Z,5.18
2022-12-19T16:31:47.284Z,4.90
2022-12-19T16:34:17.891Z,4.72
2022-12-19T16:36:44.948Z,5.03
2022-12-19T16:39:11.477Z,4.78
2022-12-19T16:41:41.646Z,5.13
2022-12-19T16:44:20.460Z,5.13
2022-12-19T16:46:50.965Z,5.35
2022-12-19T16:49:24.619Z,5.45
2022-12-19T16:51:51.251Z,5.22
2022-12-19T16:54:18.120Z,4.97
2022-12-19T16:56:48.700Z,5.30
2022-12-19T16:59:17.787Z,4.53
2022-12-19T17:01:45.384Z,5.18
2022-12-19T17:04:12.774Z,4.78
2022-12-19T17:06:39.170Z,4.68
2022-12-19T17:09:05.599Z,5.35
2022-12-19T17:11:32.083Z,4.60
2022-12-19T17:14:04.320Z,4.38
2022-12-19T17:16:31.217Z,4.00
2022-12-19T17:18:57.913Z,4.18
2022-12-19T17:21:24.435Z,4.07
2022-12-19T17:23:51.278Z,4.28
2022-12-19T17:26:18.451Z,4.88
2022-12-19T17:28:47.890Z,4.38
2022-12-19T17:31:22.961Z,4.38
2022-12-19T17:33:49.734Z,5.90
2022-12-19T17:36:19.934Z,4.57
2022-12-19T17:38:51.147Z,4.63
2022-12-19T17:41:17.555Z,5.75
2022-12-19T17:43:44.014Z,4.28
2022-12-19T17:46:16.333Z,4.05
2022-12-19T17:48:43.512Z,4.20
2022-12-19T17:51:11.257Z,5.35
2022-12-19T17:53:37.754Z,4.30
2022-12-19T17:56:04.265Z,3.75
2022-12-19T17:58:30.681Z,4.45
2022-12-19T18:00:57.096Z,3.90
2022-12-19T18:03:24.766Z,5.53
2022-12-19T18:05:52.083Z,4.60
2022-12-19T18:08:21.504Z,5.03
2022-12-19T18:10:47.943Z,4.25
2022-12-19T18:13:14.254Z,4.55
2022-12-19T18:15:40.866Z,4.72
2022-12-19T18:18:12.313Z,4.85
2022-12-19T18:20:38.645Z,4.63
2022-12-19T18:23:15.311Z,4.95
2022-12-19T18:25:41.675Z,4.03
2022-12-19T18:28:08.056Z,4.10
2022-12-19T18:30:35.520Z,5.57
2022-12-19T18:33:02.505Z,4.72
2022-12-19T18:35:36.676Z,4.20
2022-12-19T18:38:11.724Z,4.47
2022-12-19T18:40:38.123Z,3.83
2022-12-19T18:43:05.069Z,4.03
2022-12-19T18:45:38.567Z,4.15
2022-12-19T18:48:11.980Z,4.03
2022-12-19T18:50:38.439Z,4.10
2022-12-19T18:53:11.686Z,4.18
2022-12-19T18:55:38.060Z,4.75
2022-12-19T18:58:04.459Z,4.13
2022-12-19T19:00:30.993Z,4.70
2022-12-19T19:03:02.271Z,4.30
2022-12-19T19:05:30.125Z,4.15
2022-12-19T19:07:57.899Z,4.95
2022-12-19T19:10:26.145Z,4.53
2022-12-19T19:13:10.320Z,4.05
2022-12-19T19:15:40.108Z,3.90
2022-12-19T19:18:08.680Z,4.45
2022-12-19T19:20:36.376Z,3.33
2022-12-19T19:23:03.690Z,3.80
2022-12-19T19:25:30.084Z,3.58
2022-12-19T19:27:56.482Z,3.20
2022-12-19T19:30:22.830Z,4.20
2022-12-19T19:32:53.057Z,4.20
2022-12-19T19:35:19.849Z,4.05
2022-12-19T19:37:46.719Z,3.70
2022-12-19T19:40:13.654Z,4.07
2022-12-19T19:42:39.987Z,3.65
2022-12-19T19:45:06.763Z,4.30
2022-12-19T19:47:36.056Z,3.42
2022-12-19T19:50:02.859Z,3.55
2022-12-19T19:52:29.171Z,3.72
2022-12-19T19:54:55.564Z,3.88
2022-12-19T19:57:21.888Z,4.65
2022-12-19T19:59:48.215Z,3.50
2022-12-19T20:02:16.810Z,3.45
2022-12-19T20:04:43.428Z,3.70
2022-12-19T20:07:09.852Z,4.00
2022-12-19T20:09:36.249Z,3.97
2022-12-19T20:12:02.616Z,4.30
2022-12-19T20:14:29.071Z,3.55
2022-12-19T20:16:55.708Z,4.50
2022-12-19T20:19:22.059Z,5.32
2022-12-19T20:21:48.431Z,4.05
2022-12-19T20:24:15.182Z,4.30
2022-12-19T20:26:41.543Z,4.22
2022-12-19T20:29:08.429Z,3.88
2022-12-19T20:31:34.850Z,4.07
2022-12-19T20:34:01.274Z,3.90
2022-12-19T20:36:27.849Z,3.88
2022-12-19T20:38:56.514Z,4.40
2022-12-19T20:41:23.122Z,3.47
2022-12-19T20:43:49.653Z,4.10
2022-12-19T20:46:17.562Z,4.50
2022-12-19T20:48:44.979Z,4.22
2022-12-19T20:51:12.063Z,4.30
2022-12-19T20:53:38.810Z,3.90
2022-12-19T20:56:06.081Z,3.95
2022-12-19T20:58:33.891Z,4.30
2022-12-19T21:01:05.470Z,3.95
2022-12-19T21:03:32.213Z,4.07
2022-12-19T21:05:58.653Z,3.78
2022-12-19T21:08:25.557Z,4.32
2022-12-19T21:10:52.038Z,4.50
2022-12-19T21:13:18.931Z,3.80
2022-12-19T21:15:45.363Z,3.53
2022-12-19T21:18:11.801Z,4.30
2022-12-19T21:20:38.492Z,3.90
2022-12-19T21:23:05.095Z,4.03
2022-12-19T21:25:31.447Z,4.28
2022-12-19T21:27:58.237Z,4.28
2022-12-19T21:30:25.030Z,4.00
2022-12-19T21:32:51.392Z,4.30
2022-12-19T21:35:17.793Z,4.15
2022-12-19T21:37:49.884Z,4.35
2022-12-19T21:40:16.395Z,4.40
2022-12-19T21:42:42.882Z,4.25
2022-12-19T21:45:09.671Z,3.83
2022-12-19T21:47:39.220Z,4.30
2022-12-19T21:50:13.030Z,4.25
2022-12-19T21:52:39.734Z,3.88
2022-12-19T21:55:07.192Z,4.07
2022-12-19T21:57:33.508Z,3.78
2022-12-19T21:59:59.825Z,4.00
2022-12-19T22:02:26.314Z,4.20
2022-12-19T22:04:52.731Z,3.85
2022-12-19T22:07:19.152Z,3.72
2022-12-19T22:09:45.609Z,4.00
2022-12-19T22:12:12.407Z,3.33
2022-12-19T22:14:38.722Z,4.78
2022-12-19T22:17:05.630Z,3.58
2022-12-19T22:19:31.977Z,3.35
2022-12-19T22:21:58.362Z,3.75
2022-12-19T22:24:24.798Z,4.07
2022-12-19T22:26:51.113Z,3.85
2022-12-19T22:29:17.588Z,3.58
2022-12-19T22:31:44.448Z,3.83
2022-12-19T22:34:12.391Z,3.35
2022-12-19T22:36:39.537Z,5.13
2022-12-19T22:39:07.062Z,3.25
2022-12-19T22:41:34.060Z,3.75
2022-12-19T22:44:00.589Z,3.47
2022-12-19T22:46:28.447Z,3.08
2022-12-19T22:48:56.301Z,3.53
2022-12-19T22:51:22.679Z,3.10
2022-12-19T22:53:49.082Z,3.78
2022-12-19T22:56:20.128Z,4.15
2022-12-19T22:58:47.896Z,3.60
2022-12-19T23:01:14.721Z,3.58
2022-12-19T23:03:41.937Z,3.50
2022-12-19T23:06:08.456Z,3.95
2022-12-19T23:08:35.572Z,4.50
2022-12-19T23:11:02.084Z,3.58
2022-12-19T23:13:28.455Z,3.30
2022-12-19T23:15:56.019Z,3.42
2022-12-19T23:18:22.448Z,3.63
2022-12-19T23:20:48.949Z,3.58
2022-12-19T23:23:15.682Z,3.40
2022-12-19T23:25:42.116Z,3.65
2022-12-19T23:28:09.192Z,3.92
2022-12-19T23:30:36.012Z,3.80
2022-12-19T23:33:02.566Z,3.53
2022-12-19T23:35:29.536Z,3.28
2022-12-19T23:37:55.835Z,3.20
2022-12-19T23:40:22.167Z,3.80
2022-12-19T23:42:48.539Z,3.70
2022-12-19T23:45:14.867Z,3.85
2022-12-19T23:47:41.239Z,2.92
2022-12-19T23:50:07.978Z,3.60
2022-12-19T23:52:34.342Z,3.67
2022-12-19T23:55:00.705Z,3.42
2022-12-19T23:57:27.019Z,3.35
2022-12-19T23:59:53.337Z,3.22
